Time;durP1;ratioP1;P1;durP2;ratioP2;P2;SDS_P1;SDS_P2;PMS_P1;PMS_P2;Temp;Humidity;BMP_temperature;BMP_pressure;BME280_temperature;BME280_humidity;BME280_pressure;Samples;Min_cycle;Max_cycle;Signal;HPM_P1;HPM_P2
2021/06/22 00:00:33;;;;;;;12.18;6.75;;;;;;;;;;5102528;28;20560;-67
2021/06/22 00:03:00;;;;;;;15.20;7.05;;;;;;;;;;5100310;27;20043;-67
2021/06/22 00:05:27;;;;;;;12.30;6.80;;;;;;;;;;5101337;28;20036;-67
2021/06/22 00:07:54;;;;;;;12.45;6.53;;;;;;;;;;5092033;28;20043;-67
2021/06/22 00:10:21;;;;;;;14.52;7.38;;;;;;;;;;5102038;28;20047;-67
2021/06/22 00:12:48;;;;;;;14.45;7.38;;;;;;;;;;5096165;27;20073;-67
2021/06/22 00:15:16;;;;;;;12.25;7.10;;;;;;;;;;5102662;28;20043;-67
2021/06/22 00:17:42;;;;;;;12.77;6.75;;;;;;;;;;5097585;27;20074;-67
2021/06/22 00:20:09;;;;;;;11.95;7.90;;;;;;;;;;5105227;27;20656;-67
2021/06/22 00:22:35;;;;;;;12.13;7.32;;;;;;;;;;5097238;27;20048;-67
2021/06/22 00:25:01;;;;;;;13.68;6.95;;;;;;;;;;5099446;28;20039;-67
2021/06/22 00:27:28;;;;;;;12.00;6.43;;;;;;;;;;5090440;27;20483;-67
2021/06/22 00:29:54;;;;;;;13.10;6.60;;;;;;;;;;5103810;28;20036;-67
2021/06/22 00:32:21;;;;;;;14.35;6.43;;;;;;;;;;5093947;27;20035;-67
2021/06/22 00:34:47;;;;;;;11.23;6.65;;;;;;;;;;5097547;27;20039;-67
2021/06/22 00:37:15;;;;;;;15.30;6.80;;;;;;;;;;5101032;28;20449;-67
2021/06/22 00:39:43;;;;;;;11.13;6.60;;;;;;;;;;5093659;28;20104;-67
2021/06/22 00:42:09;;;;;;;13.73;6.88;;;;;;;;;;5101972;27;20114;-67
2021/06/22 00:44:45;;;;;;;10.70;7.60;;;;;;;;;;5092994;28;20032;-67
2021/06/22 00:47:11;;;;;;;12.70;6.53;;;;;;;;;;5108107;27;20058;-67
2021/06/22 00:49:37;;;;;;;15.07;6.93;;;;;;;;;;5091854;28;20040;-67
2021/06/22 00:52:03;;;;;;;13.07;7.05;;;;;;;;;;5080244;28;20071;-67
2021/06/22 00:54:29;;;;;;;12.73;7.50;;;;;;;;;;5093588;27;20043;-67
2021/06/22 00:56:56;;;;;;;13.50;6.90;;;;;;;;;;5105983;27;20044;-67
2021/06/22 00:59:22;;;;;;;12.00;7.45;;;;;;;;;;5097210;28;20063;-67
2021/06/22 01:01:51;;;;;;;11.20;6.72;;;;;;;;;;5099568;28;20259;-67
2021/06/22 01:04:17;;;;;;;14.38;7.25;;;;;;;;;;5096333;27;20092;-67
2021/06/22 01:06:43;;;;;;;13.82;7.43;;;;;;;;;;5078581;28;20052;-67
2021/06/22 01:09:09;;;;;;;12.70;7.00;;;;;;;;;;5091922;27;20396;-67
2021/06/22 01:11:38;;;;;;;13.43;7.38;;;;;;;;;;5102964;27;20039;-67
2021/06/22 01:14:04;;;;;;;13.45;7.03;;;;;;;;;;5092322;27;23345;-67
2021/06/22 01:16:30;;;;;;;11.45;6.95;;;;;;;;;;5095544;28;20070;-67
2021/06/22 01:18:57;;;;;;;9.85;6.55;;;;;;;;;;5100310;27;20059;-67
2021/06/22 01:21:24;;;;;;;10.35;6.68;;;;;;;;;;5097941;28;20040;-67
2021/06/22 01:23:50;;;;;;;13.25;7.53;;;;;;;;;;5103293;27;20100;-67
2021/06/22 01:26:16;;;;;;;13.88;7.47;;;;;;;;;;5095334;28;20039;-67
2021/06/22 01:28:46;;;;;;;9.95;7.10;;;;;;;;;;5097056;27;20040;-67
2021/06/22 01:31:14;;;;;;;13.55;7.30;;;;;;;;;;5098106;27;20043;-67
2021/06/22 01:33:44;;;;;;;11.43;6.78;;;;;;;;;;5103056;27;20541;-67
2021/06/22 01:36:11;;;;;;;15.48;8.25;;;;;;;;;;5099299;28;20503;-67
2021/06/22 01:38:37;;;;;;;10.18;7.40;;;;;;;;;;5107343;28;20245;-67
2021/06/22 01:41:03;;;;;;;17.95;7.22;;;;;;;;;;5092968;27;20066;-67
2021/06/22 01:43:29;;;;;;;14.30;7.70;;;;;;;;;;5102086;28;20130;-67
2021/06/22 01:45:55;;;;;;;12.85;7.10;;;;;;;;;;5095783;28;20036;-67
2021/06/22 01:48:21;;;;;;;14.38;7.15;;;;;;;;;;5105278;27;20517;-67
2021/06/22 01:50:50;;;;;;;15.70;7.07;;;;;;;;;;5094536;28;20308;-67
2021/06/22 01:53:16;;;;;;;11.55;7.40;;;;;;;;;;5097007;27;20032;-67
2021/06/22 01:55:43;;;;;;;11.68;7.10;;;;;;;;;;5087480;27;20396;-67
2021/06/22 01:58:14;;;;;;;11.88;7.35;;;;;;;;;;5091645;28;20679;-67
2021/06/22 02:00:40;;;;;;;17.50;7.05;;;;;;;;;;5093160;28;20479;-67
2021/06/22 02:03:08;;;;;;;13.82;7.07;;;;;;;;;;5102856;27;20032;-67
2021/06/22 02:05:34;;;;;;;11.65;7.60;;;;;;;;;;5101359;27;20035;-67
2021/06/22 02:08:00;;;;;;;14.73;6.85;;;;;;;;;;5086589;28;20066;-67
2021/06/22 02:10:26;;;;;;;11.98;7.20;;;;;;;;;;5094896;28;20325;-67
2021/06/22 02:12:52;;;;;;;13.98;7.38;;;;;;;;;;5091193;28;20063;-67
2021/06/22 02:15:18;;;;;;;15.88;7.40;;;;;;;;;;5095121;27;20047;-67
2021/06/22 02:17:45;;;;;;;18.05;8.15;;;;;;;;;;5094327;28;20049;-67
2021/06/22 02:20:11;;;;;;;15.95;8.90;;;;;;;;;;5103341;27;20059;-67
2021/06/22 02:22:37;;;;;;;20.52;9.63;;;;;;;;;;5092317;28;20036;-67
2021/06/22 02:25:05;;;;;;;16.38;9.90;;;;;;;;;;5096188;27;20384;-67
2021/06/22 02:27:31;;;;;;;17.42;9.80;;;;;;;;;;5090053;28;20441;-67
2021/06/22 02:29:58;;;;;;;15.45;10.00;;;;;;;;;;5103881;27;20378;-67
2021/06/22 02:32:25;;;;;;;17.90;10.98;;;;;;;;;;5091468;27;20456;-67
2021/06/22 02:34:51;;;;;;;16.85;10.52;;;;;;;;;;5103556;28;20119;-67
2021/06/22 02:37:18;;;;;;;17.63;10.85;;;;;;;;;;5090695;28;20040;-67
2021/06/22 02:39:45;;;;;;;16.55;10.23;;;;;;;;;;5097519;28;20028;-67
2021/06/22 02:42:11;;;;;;;18.48;11.57;;;;;;;;;;5093856;28;20457;-68
2021/06/22 02:44:37;;;;;;;21.95;12.35;;;;;;;;;;5100426;28;20437;-67
2021/06/22 02:47:04;;;;;;;19.20;11.98;;;;;;;;;;5101238;28;20801;-67
2021/06/22 02:49:30;;;;;;;16.63;11.93;;;;;;;;;;5091904;28;20462;-67
2021/06/22 02:51:57;;;;;;;20.88;13.07;;;;;;;;;;5095757;28;20564;-67
2021/06/22 02:54:23;;;;;;;17.42;12.73;;;;;;;;;;5094768;28;20481;-67
2021/06/22 02:56:49;;;;;;;15.82;12.23;;;;;;;;;;5103281;28;20333;-67
2021/06/22 02:59:16;;;;;;;18.23;13.30;;;;;;;;;;5096510;28;20088;-67
2021/06/22 03:01:42;;;;;;;18.55;12.25;;;;;;;;;;5106149;28;20298;-67
2021/06/22 03:04:08;;;;;;;18.50;12.88;;;;;;;;;;5095302;28;20051;-67
2021/06/22 03:06:34;;;;;;;18.85;12.85;;;;;;;;;;5095537;28;20118;-67
2021/06/22 03:09:00;;;;;;;16.80;13.48;;;;;;;;;;5092212;28;20063;-67
2021/06/22 03:11:26;;;;;;;19.23;13.13;;;;;;;;;;5100810;28;20073;-67
2021/06/22 03:13:52;;;;;;;18.48;13.32;;;;;;;;;;5096900;28;20036;-67
2021/06/22 03:16:19;;;;;;;17.80;12.98;;;;;;;;;;5107186;28;20032;-67
2021/06/22 03:18:45;;;;;;;18.10;12.73;;;;;;;;;;5087976;28;20040;-67
2021/06/22 03:21:11;;;;;;;16.98;12.90;;;;;;;;;;5094728;28;20292;-67
2021/06/22 03:23:37;;;;;;;19.00;13.65;;;;;;;;;;5100393;28;20081;-67
2021/06/22 03:26:04;;;;;;;19.15;13.65;;;;;;;;;;5088909;28;20172;-67
2021/06/22 03:28:30;;;;;;;16.13;13.63;;;;;;;;;;5097662;28;20368;-67
2021/06/22 03:30:56;;;;;;;21.15;13.13;;;;;;;;;;5095504;28;20075;-67
2021/06/22 03:33:23;;;;;;;20.88;14.32;;;;;;;;;;5089719;28;20044;-67
2021/06/22 03:35:49;;;;;;;22.73;15.10;;;;;;;;;;5090519;28;20359;-67
2021/06/22 03:38:15;;;;;;;16.45;13.07;;;;;;;;;;5094734;28;20552;-67
2021/06/22 03:40:41;;;;;;;17.77;13.75;;;;;;;;;;5088422;28;20028;-67
2021/06/22 03:43:08;;;;;;;19.95;13.60;;;;;;;;;;5098284;28;20437;-67
2021/06/22 03:45:34;;;;;;;17.33;13.20;;;;;;;;;;5090655;28;20054;-67
2021/06/22 03:48:00;;;;;;;22.13;13.15;;;;;;;;;;5089778;28;20069;-67
2021/06/22 03:50:26;;;;;;;17.70;13.18;;;;;;;;;;5092383;28;20055;-67
2021/06/22 03:52:52;;;;;;;21.05;14.48;;;;;;;;;;5094534;28;20424;-67
2021/06/22 03:55:29;;;;;;;18.98;12.90;;;;;;;;;;5088770;28;20048;-67
2021/06/22 03:57:57;;;;;;;17.65;13.48;;;;;;;;;;5089781;28;20043;-67
2021/06/22 04:00:23;;;;;;;20.02;14.63;;;;;;;;;;5091375;28;20085;-67
2021/06/22 04:02:49;;;;;;;17.77;13.52;;;;;;;;;;5096627;28;20142;-67
2021/06/22 04:05:16;;;;;;;17.45;13.80;;;;;;;;;;5097544;28;20043;-67
2021/06/22 04:07:43;;;;;;;18.15;14.30;;;;;;;;;;5097135;28;20047;-67
2021/06/22 04:10:10;;;;;;;20.13;14.18;;;;;;;;;;5097494;28;20070;-67
2021/06/22 04:12:36;;;;;;;21.23;15.45;;;;;;;;;;5090653;28;20040;-67
2021/06/22 04:15:03;;;;;;;17.17;13.88;;;;;;;;;;5095663;28;20083;-67
2021/06/22 04:17:29;;;;;;;22.27;14.38;;;;;;;;;;5102420;28;20043;-67
2021/06/22 04:19:55;;;;;;;22.25;16.77;;;;;;;;;;5098386;28;20066;-67
2021/06/22 04:22:22;;;;;;;19.55;15.27;;;;;;;;;;5093705;28;20046;-67
2021/06/22 04:24:48;;;;;;;18.50;14.57;;;;;;;;;;5095717;28;20441;-67
2021/06/22 04:27:14;;;;;;;21.00;14.80;;;;;;;;;;5099156;28;20060;-67
2021/06/22 04:29:40;;;;;;;24.83;15.00;;;;;;;;;;5098412;28;20036;-67
2021/06/22 04:32:07;;;;;;;21.05;15.63;;;;;;;;;;5088306;28;20040;-67
2021/06/22 04:34:34;;;;;;;26.55;16.42;;;;;;;;;;5093745;28;20101;-67
2021/06/22 04:37:00;;;;;;;18.50;14.68;;;;;;;;;;5091720;28;20465;-67
2021/06/22 04:39:26;;;;;;;23.40;17.20;;;;;;;;;;5096420;28;20116;-67
2021/06/22 04:41:52;;;;;;;27.05;16.42;;;;;;;;;;5089117;28;20042;-67
2021/06/22 04:44:19;;;;;;;19.52;16.40;;;;;;;;;;5095194;28;20090;-67
2021/06/22 04:46:48;;;;;;;27.58;16.73;;;;;;;;;;5095286;28;20044;-67
2021/06/22 04:49:14;;;;;;;23.35;16.67;;;;;;;;;;5090965;28;20518;-67
2021/06/22 04:51:40;;;;;;;27.00;16.77;;;;;;;;;;5093660;28;20407;-67
2021/06/22 04:54:08;;;;;;;23.73;17.48;;;;;;;;;;5089464;28;20047;-67
2021/06/22 04:56:34;;;;;;;26.10;16.90;;;;;;;;;;5097283;28;20097;-67
2021/06/22 04:59:00;;;;;;;20.77;16.77;;;;;;;;;;5095234;28;20043;-67
2021/06/22 05:01:27;;;;;;;24.38;17.67;;;;;;;;;;5091735;28;20085;-67
2021/06/22 05:03:53;;;;;;;23.73;16.55;;;;;;;;;;5099157;28;20130;-67
2021/06/22 05:06:19;;;;;;;18.88;16.15;;;;;;;;;;5102083;28;20111;-67
2021/06/22 05:08:46;;;;;;;24.63;16.92;;;;;;;;;;5087097;28;20040;-67
2021/06/22 05:11:12;;;;;;;21.42;16.80;;;;;;;;;;5098042;28;20034;-67
2021/06/22 05:13:39;;;;;;;26.92;16.70;;;;;;;;;;5092506;28;20040;-67
2021/06/22 05:16:05;;;;;;;21.67;16.77;;;;;;;;;;5097937;28;20039;-67
2021/06/22 05:18:31;;;;;;;21.92;16.85;;;;;;;;;;5085297;28;20054;-67
2021/06/22 05:20:57;;;;;;;22.48;16.15;;;;;;;;;;5103379;28;20047;-67
2021/06/22 05:23:23;;;;;;;22.00;16.13;;;;;;;;;;5090901;28;20096;-67
2021/06/22 05:25:50;;;;;;;21.30;15.70;;;;;;;;;;5093722;28;20027;-67
2021/06/22 05:28:16;;;;;;;25.75;16.17;;;;;;;;;;5097630;28;20488;-67
2021/06/22 05:30:42;;;;;;;20.45;15.30;;;;;;;;;;5089467;28;20372;-67
2021/06/22 05:33:09;;;;;;;20.80;14.80;;;;;;;;;;5077903;28;20062;-67
2021/06/22 05:35:35;;;;;;;18.90;14.18;;;;;;;;;;5097823;28;20044;-67
2021/06/22 05:38:02;;;;;;;20.25;14.48;;;;;;;;;;5101636;28;20060;-67
2021/06/22 05:40:29;;;;;;;19.08;15.25;;;;;;;;;;5099231;28;20065;-67
2021/06/22 05:42:55;;;;;;;19.52;14.20;;;;;;;;;;5105503;28;20040;-66
2021/06/22 05:45:21;;;;;;;25.52;17.13;;;;;;;;;;5099203;28;20491;-67
2021/06/22 05:47:48;;;;;;;22.33;14.38;;;;;;;;;;5102810;28;20671;-67
2021/06/22 05:50:15;;;;;;;19.90;14.02;;;;;;;;;;5096696;28;20492;-67
2021/06/22 05:52:42;;;;;;;18.40;14.15;;;;;;;;;;5105694;28;20039;-67
2021/06/22 05:55:17;;;;;;;20.52;15.48;;;;;;;;;;5099187;28;20079;-67
2021/06/22 05:57:47;;;;;;;19.65;14.27;;;;;;;;;;5102259;28;20046;-67
2021/06/22 06:00:15;;;;;;;17.08;13.45;;;;;;;;;;5098437;28;20043;-67
2021/06/22 06:02:41;;;;;;;17.58;13.57;;;;;;;;;;5102890;28;20563;-67
2021/06/22 06:05:09;;;;;;;18.15;14.45;;;;;;;;;;5090594;28;20388;-67
2021/06/22 06:07:35;;;;;;;19.40;13.93;;;;;;;;;;5105931;28;20036;-67
2021/06/22 06:10:02;;;;;;;20.60;14.63;;;;;;;;;;5104041;28;20150;-66
2021/06/22 06:12:30;;;;;;;17.85;13.18;;;;;;;;;;5091523;28;20051;-67
2021/06/22 06:14:56;;;;;;;16.80;13.07;;;;;;;;;;5097886;28;20372;-67
2021/06/22 06:17:22;;;;;;;17.92;12.93;;;;;;;;;;5089640;28;20039;-67
2021/06/22 06:19:50;;;;;;;18.77;13.15;;;;;;;;;;5079696;28;20433;-67
2021/06/22 06:22:17;;;;;;;17.00;11.43;;;;;;;;;;5091571;28;20036;-67
2021/06/22 06:24:44;;;;;;;17.13;12.07;;;;;;;;;;5094974;28;20477;-67
2021/06/22 06:27:18;;;;;;;15.77;10.95;;;;;;;;;;5095968;28;20392;-67
2021/06/22 06:30:04;;;;;;;15.93;9.68;;;;;;;;;;5094027;28;20044;-67
2021/06/22 06:32:30;;;;;;;17.23;9.48;;;;;;;;;;5096770;28;20036;-67
2021/06/22 06:34:56;;;;;;;17.42;10.15;;;;;;;;;;5096046;28;20728;-67
2021/06/22 06:37:22;;;;;;;12.77;9.07;;;;;;;;;;5089593;28;20050;-67
2021/06/22 06:39:49;;;;;;;15.30;9.20;;;;;;;;;;5101155;28;20126;-68
2021/06/22 06:42:15;;;;;;;14.23;8.57;;;;;;;;;;5095616;28;20074;-68
2021/06/22 06:44:41;;;;;;;14.55;8.70;;;;;;;;;;5092337;28;20433;-65
2021/06/22 06:47:07;;;;;;;13.60;7.03;;;;;;;;;;5093889;28;20097;-65
2021/06/22 06:49:35;;;;;;;13.70;7.35;;;;;;;;;;5099735;28;20035;-66
2021/06/22 06:52:03;;;;;;;12.73;7.18;;;;;;;;;;5087399;28;20043;-67
2021/06/22 06:54:29;;;;;;;14.75;6.47;;;;;;;;;;5094595;28;20036;-68
2021/06/22 06:56:55;;;;;;;12.43;7.45;;;;;;;;;;5094274;28;20089;-67
2021/06/22 06:59:22;;;;;;;12.45;7.35;;;;;;;;;;5090816;28;20039;-67
2021/06/22 07:01:48;;;;;;;14.73;7.35;;;;;;;;;;5089218;28;20048;-67
2021/06/22 07:04:15;;;;;;;12.25;6.97;;;;;;;;;;5088925;28;20066;-67
2021/06/22 07:06:41;;;;;;;12.18;6.82;;;;;;;;;;5094462;28;20040;-67
2021/06/22 07:09:08;;;;;;;12.50;6.25;;;;;;;;;;5092855;28;20031;-67
2021/06/22 07:11:34;;;;;;;14.68;6.90;;;;;;;;;;5099461;28;20408;-67
2021/06/22 07:14:21;;;;;;;11.68;5.70;;;;;;;;;;5074909;28;20048;-68
2021/06/22 07:16:48;;;;;;;14.55;6.75;;;;;;;;;;5093908;28;20032;-67
2021/06/22 07:19:15;;;;;;;10.82;5.80;;;;;;;;;;5091851;28;20064;-67
2021/06/22 07:21:41;;;;;;;16.50;5.82;;;;;;;;;;5095918;28;20048;-67
2021/06/22 07:24:08;;;;;;;15.23;5.65;;;;;;;;;;5092881;28;20356;-67
2021/06/22 07:26:34;;;;;;;13.20;5.38;;;;;;;;;;5091641;28;20056;-67
2021/06/22 07:29:01;;;;;;;11.45;5.15;;;;;;;;;;5084768;28;20112;-68
2021/06/22 07:31:27;;;;;;;11.27;4.50;;;;;;;;;;5093178;28;20326;-68
2021/06/22 07:33:53;;;;;;;11.20;4.93;;;;;;;;;;5095064;28;20031;-67
2021/06/22 07:36:20;;;;;;;13.35;5.30;;;;;;;;;;5106597;28;20099;-67
2021/06/22 07:38:46;;;;;;;13.18;4.95;;;;;;;;;;5090851;28;20043;-67
2021/06/22 07:41:12;;;;;;;8.60;5.45;;;;;;;;;;5097938;28;20411;-67
2021/06/22 07:43:42;;;;;;;16.17;5.40;;;;;;;;;;5098947;28;20059;-67
2021/06/22 07:46:08;;;;;;;13.95;4.68;;;;;;;;;;5089646;28;20052;-67
2021/06/22 07:48:34;;;;;;;7.60;4.25;;;;;;;;;;5096226;28;20036;-69
2021/06/22 07:51:01;;;;;;;14.15;5.00;;;;;;;;;;5091334;28;20040;-67
2021/06/22 07:53:27;;;;;;;14.57;5.38;;;;;;;;;;5097867;28;20132;-67
2021/06/22 07:55:53;;;;;;;7.18;4.03;;;;;;;;;;5100092;28;20127;-67
2021/06/22 07:58:19;;;;;;;12.27;4.20;;;;;;;;;;5089534;28;20052;-68
2021/06/22 08:00:46;;;;;;;9.77;4.15;;;;;;;;;;5092158;28;20480;-67
2021/06/22 08:03:16;;;;;;;11.07;3.78;;;;;;;;;;5096734;28;20047;-68
2021/06/22 08:05:43;;;;;;;11.82;3.70;;;;;;;;;;5096140;28;20036;-68
2021/06/22 08:08:12;;;;;;;10.90;4.47;;;;;;;;;;5099471;28;20139;-68
2021/06/22 08:10:39;;;;;;;10.75;3.88;;;;;;;;;;5092862;28;20032;-67
2021/06/22 08:13:05;;;;;;;12.00;3.50;;;;;;;;;;5094789;28;20501;-66
2021/06/22 08:15:32;;;;;;;9.73;4.10;;;;;;;;;;5101193;28;20036;-66
2021/06/22 08:17:58;;;;;;;8.90;3.78;;;;;;;;;;5098051;28;20048;-66
2021/06/22 08:20:25;;;;;;;13.25;3.80;;;;;;;;;;5093156;27;20108;-67
2021/06/22 08:22:53;;;;;;;7.18;3.38;;;;;;;;;;5095204;28;20075;-68
2021/06/22 08:25:19;;;;;;;8.15;3.20;;;;;;;;;;5096474;28;20109;-67
2021/06/22 08:27:45;;;;;;;10.95;3.35;;;;;;;;;;5091694;28;20467;-67
2021/06/22 08:30:12;;;;;;;12.15;3.42;;;;;;;;;;5096644;28;20328;-67
2021/06/22 08:32:38;;;;;;;11.63;3.83;;;;;;;;;;5103020;28;20092;-67
2021/06/22 08:35:05;;;;;;;11.30;3.65;;;;;;;;;;5102181;28;20076;-67
2021/06/22 08:37:31;;;;;;;10.25;3.90;;;;;;;;;;5090470;28;20387;-67
2021/06/22 08:39:58;;;;;;;13.70;4.13;;;;;;;;;;5095487;28;20062;-68
2021/06/22 08:42:24;;;;;;;11.02;3.70;;;;;;;;;;5095414;28;20040;-68
2021/06/22 08:44:51;;;;;;;11.80;3.85;;;;;;;;;;5102972;28;20050;-68
2021/06/22 08:47:24;;;;;;;7.97;3.25;;;;;;;;;;5102266;28;20032;-68
2021/06/22 08:49:52;;;;;;;10.03;3.53;;;;;;;;;;5098995;28;20499;-66
2021/06/22 08:52:25;;;;;;;7.60;2.90;;;;;;;;;;5090317;28;20355;-66
2021/06/22 08:54:53;;;;;;;13.80;3.90;;;;;;;;;;5098061;28;20044;-66
2021/06/22 08:57:19;;;;;;;8.88;3.08;;;;;;;;;;5096326;28;20463;-66
2021/06/22 08:59:46;;;;;;;10.18;2.60;;;;;;;;;;5091967;28;20046;-65
2021/06/22 09:02:12;;;;;;;10.65;3.22;;;;;;;;;;5091424;28;20035;-66
2021/06/22 09:04:38;;;;;;;7.10;2.88;;;;;;;;;;5096595;28;20032;-66
2021/06/22 09:07:04;;;;;;;7.13;2.70;;;;;;;;;;5088536;28;20399;-67
2021/06/22 09:09:39;;;;;;;7.72;2.60;;;;;;;;;;5097471;28;20077;-66
2021/06/22 09:12:06;;;;;;;6.82;2.63;;;;;;;;;;5093400;28;20384;-66
2021/06/22 09:14:33;;;;;;;6.88;2.50;;;;;;;;;;5095882;28;20126;-66
2021/06/22 09:17:01;;;;;;;6.55;2.53;;;;;;;;;;5092509;28;20108;-66
2021/06/22 09:19:27;;;;;;;8.73;2.72;;;;;;;;;;5094689;28;20094;-66
2021/06/22 09:21:53;;;;;;;6.75;2.72;;;;;;;;;;5095430;28;20446;-66
2021/06/22 09:24:21;;;;;;;12.57;2.92;;;;;;;;;;5094923;28;20486;-66
2021/06/22 09:26:48;;;;;;;6.47;2.45;;;;;;;;;;5097411;27;20044;-67
2021/06/22 09:29:16;;;;;;;8.40;2.50;;;;;;;;;;5091247;28;20044;-67
2021/06/22 09:31:53;;;;;;;7.97;2.65;;;;;;;;;;5095535;28;20036;-66
2021/06/22 09:34:19;;;;;;;7.88;2.42;;;;;;;;;;5095782;28;20394;-67
2021/06/22 09:36:49;;;;;;;6.68;2.15;;;;;;;;;;5091658;28;20456;-66
2021/06/22 09:39:16;;;;;;;9.18;2.65;;;;;;;;;;5095880;28;20040;-67
2021/06/22 09:41:43;;;;;;;10.10;2.60;;;;;;;;;;5098475;28;20043;-67
2021/06/22 09:44:16;;;;;;;7.05;2.67;;;;;;;;;;5087714;28;20307;-67
2021/06/22 09:46:42;;;;;;;10.02;2.65;;;;;;;;;;5091677;28;20488;-66
2021/06/22 09:49:29;;;;;;;8.32;2.50;;;;;;;;;;5088998;28;20395;-66
2021/06/22 09:51:59;;;;;;;10.27;2.88;;;;;;;;;;5098390;28;20043;-67
2021/06/22 09:54:27;;;;;;;6.65;2.45;;;;;;;;;;5095317;28;20093;-67
2021/06/22 09:56:59;;;;;;;6.85;2.42;;;;;;;;;;5089159;28;20031;-67
2021/06/22 09:59:26;;;;;;;6.95;2.10;;;;;;;;;;5094691;28;20042;-67
2021/06/22 10:01:53;;;;;;;6.88;2.28;;;;;;;;;;5098056;28;20035;-67
2021/06/22 10:04:19;;;;;;;6.88;2.33;;;;;;;;;;5087981;28;20050;-67
2021/06/22 10:06:49;;;;;;;7.97;2.97;;;;;;;;;;5099379;28;20503;-67
2021/06/22 10:09:20;;;;;;;7.20;2.05;;;;;;;;;;5098587;28;20036;-67
2021/06/22 10:11:46;;;;;;;6.15;2.30;;;;;;;;;;5097644;28;20036;-67
2021/06/22 10:14:23;;;;;;;6.57;3.10;;;;;;;;;;5091568;28;20067;-67
2021/06/22 10:16:50;;;;;;;12.93;4.00;;;;;;;;;;5091808;28;20167;-67
2021/06/22 10:19:17;;;;;;;9.32;2.55;;;;;;;;;;5099801;28;20043;-67
2021/06/22 10:21:43;;;;;;;5.30;2.13;;;;;;;;;;5094896;28;20053;-67
2021/06/22 10:24:09;;;;;;;7.57;2.50;;;;;;;;;;5099127;28;20039;-67
2021/06/22 10:26:35;;;;;;;7.68;2.38;;;;;;;;;;5089157;28;20457;-67
2021/06/22 10:29:03;;;;;;;6.78;2.38;;;;;;;;;;5093090;28;20449;-67
2021/06/22 10:31:30;;;;;;;5.47;2.50;;;;;;;;;;5088434;28;20380;-67
2021/06/22 10:33:57;;;;;;;4.82;2.30;;;;;;;;;;5102204;28;20042;-67
2021/06/22 10:36:25;;;;;;;7.63;3.20;;;;;;;;;;5091251;28;20452;-67
2021/06/22 10:38:55;;;;;;;7.72;3.45;;;;;;;;;;5095851;28;20399;-67
2021/06/22 10:41:22;;;;;;;8.82;2.45;;;;;;;;;;5086127;28;20400;-67
2021/06/22 10:43:49;;;;;;;7.13;2.33;;;;;;;;;;5098202;28;20040;-67
2021/06/22 10:46:16;;;;;;;8.60;2.35;;;;;;;;;;5089379;28;22682;-67
2021/06/22 10:48:44;;;;;;;6.50;2.30;;;;;;;;;;5093918;28;20039;-67
2021/06/22 10:51:30;;;;;;;5.75;2.22;;;;;;;;;;5084290;28;20040;-67
2021/06/22 10:53:57;;;;;;;7.55;2.17;;;;;;;;;;5090867;28;20036;-67
2021/06/22 10:56:24;;;;;;;14.02;2.63;;;;;;;;;;5091825;28;20044;-67
2021/06/22 10:59:08;;;;;;;9.60;2.75;;;;;;;;;;5095890;28;20049;-67
2021/06/22 11:01:34;;;;;;;;;;;;;;;;;;5086293;28;20035;-67
2021/06/22 11:04:04;;;;;;;7.57;2.60;;;;;;;;;;5092757;28;19920;-67
2021/06/22 11:06:30;;;;;;;9.15;2.45;;;;;;;;;;5093232;28;20040;-67
2021/06/22 11:09:15;;;;;;;7.07;3.10;;;;;;;;;;5095730;28;20035;-67
2021/06/22 11:11:41;;;;;;;5.03;2.20;;;;;;;;;;5096970;28;20046;-67
2021/06/22 11:14:09;;;;;;;6.82;2.60;;;;;;;;;;5090915;28;20052;-67
2021/06/22 11:16:35;;;;;;;11.27;3.22;;;;;;;;;;5099674;28;20336;-67
2021/06/22 11:19:03;;;;;;;11.10;3.38;;;;;;;;;;5095044;28;20050;-67
2021/06/22 11:21:31;;;;;;;9.25;3.38;;;;;;;;;;5096929;28;20052;-67
2021/06/22 11:24:00;;;;;;;9.27;2.72;;;;;;;;;;5093895;28;20496;-66
2021/06/22 11:26:27;;;;;;;8.27;3.17;;;;;;;;;;5107797;28;20411;-66
2021/06/22 11:28:55;;;;;;;13.63;3.70;;;;;;;;;;5103688;28;20147;-67
2021/06/22 11:31:42;;;;;;;9.77;3.30;;;;;;;;;;5095851;28;20469;-67
2021/06/22 11:34:08;;;;;;;7.40;2.90;;;;;;;;;;5093025;28;20123;-67
2021/06/22 11:36:35;;;;;;;8.68;3.20;;;;;;;;;;5101489;28;20062;-67
2021/06/22 11:39:10;;;;;;;11.85;3.80;;;;;;;;;;5095581;28;20158;-67
2021/06/22 11:41:37;;;;;;;9.25;3.22;;;;;;;;;;5109565;28;20032;-67
2021/06/22 11:44:09;;;;;;;10.52;3.55;;;;;;;;;;5095317;28;20040;-67
2021/06/22 11:46:37;;;;;;;9.15;2.75;;;;;;;;;;5101126;28;20538;-67
2021/06/22 11:49:04;;;;;;;8.13;2.88;;;;;;;;;;5094724;28;20406;-67
2021/06/22 11:51:51;;;;;;;9.68;3.78;;;;;;;;;;5104505;28;20146;-67
2021/06/22 11:54:18;;;;;;;6.80;2.90;;;;;;;;;;5084453;28;20050;-67
2021/06/22 11:56:45;;;;;;;11.20;3.38;;;;;;;;;;5100221;28;20052;-66
2021/06/22 11:59:11;;;;;;;8.48;3.50;;;;;;;;;;5092674;28;20047;-67
2021/06/22 12:01:43;;;;;;;9.07;3.50;;;;;;;;;;5109936;28;20035;-67
2021/06/22 12:04:09;;;;;;;7.13;2.63;;;;;;;;;;5094963;28;20101;-67
2021/06/22 12:06:36;;;;;;;6.90;3.20;;;;;;;;;;5099684;28;20036;-67
2021/06/22 12:09:03;;;;;;;12.80;3.28;;;;;;;;;;5095101;28;20032;-67
2021/06/22 12:11:30;;;;;;;10.68;3.65;;;;;;;;;;5097155;28;20040;-67
2021/06/22 12:13:56;;;;;;;9.98;2.92;;;;;;;;;;5099717;28;20048;-68
2021/06/22 12:16:24;;;;;;;11.88;3.15;;;;;;;;;;5094912;28;20509;-68
2021/06/22 12:18:51;;;;;;;10.50;4.25;;;;;;;;;;5095300;28;20039;-68
2021/06/22 12:21:17;;;;;;;7.13;3.38;;;;;;;;;;5092393;28;20052;-68
2021/06/22 12:23:43;;;;;;;6.00;3.10;;;;;;;;;;5105345;28;20039;-68
2021/06/22 12:26:12;;;;;;;8.65;3.20;;;;;;;;;;5101020;28;20039;-68
2021/06/22 12:28:38;;;;;;;11.07;3.72;;;;;;;;;;5092167;28;20052;-68
2021/06/22 12:31:05;;;;;;;8.25;3.60;;;;;;;;;;5093340;28;20040;-68
2021/06/22 12:33:42;;;;;;;11.30;3.75;;;;;;;;;;5095240;28;20040;-69
2021/06/22 12:36:10;;;;;;;9.60;3.72;;;;;;;;;;5091122;28;20063;-69
2021/06/22 12:38:39;;;;;;;6.40;3.22;;;;;;;;;;5095937;28;20133;-67
2021/06/22 12:41:06;;;;;;;11.45;3.78;;;;;;;;;;5097915;28;20040;-65
2021/06/22 12:43:49;;;;;;;10.82;4.10;;;;;;;;;;5101668;28;20054;-65
2021/06/22 12:46:20;;;;;;;9.00;3.47;;;;;;;;;;5088357;28;20031;-67
2021/06/22 12:48:47;;;;;;;9.63;3.80;;;;;;;;;;5091252;28;20452;-69
2021/06/22 12:51:15;;;;;;;9.48;4.10;;;;;;;;;;5095975;28;20044;-69
2021/06/22 12:53:44;;;;;;;9.27;4.32;;;;;;;;;;5101906;28;20044;-66
2021/06/22 12:56:11;;;;;;;10.23;4.38;;;;;;;;;;5088381;28;20051;-67
2021/06/22 12:58:57;;;;;;;10.38;4.78;;;;;;;;;;5094256;28;20450;-67
2021/06/22 13:01:29;;;;;;;10.32;4.65;;;;;;;;;;5093765;28;20043;-68
2021/06/22 13:03:55;;;;;;;8.57;4.10;;;;;;;;;;5105358;28;20028;-66
2021/06/22 13:06:35;;;;;;;12.88;5.00;;;;;;;;;;5101790;28;20047;-66
2021/06/22 13:09:04;;;;;;;9.88;4.07;;;;;;;;;;5096877;28;20048;-66
2021/06/22 13:11:32;;;;;;;9.70;3.92;;;;;;;;;;5094405;28;20048;-65
2021/06/22 13:14:11;;;;;;;8.02;3.65;;;;;;;;;;5097590;28;20047;-66
2021/06/22 13:16:38;;;;;;;13.90;4.32;;;;;;;;;;5093627;28;20052;-66
2021/06/22 13:19:05;;;;;;;9.15;3.92;;;;;;;;;;5098619;28;20028;-66
2021/06/22 13:21:36;;;;;;;9.80;4.10;;;;;;;;;;5096205;28;20388;-66
2021/06/22 13:24:03;;;;;;;10.45;4.35;;;;;;;;;;5093505;28;20173;-66
2021/06/22 13:26:29;;;;;;;9.60;3.88;;;;;;;;;;5095525;28;20043;-65
2021/06/22 13:28:59;;;;;;;8.10;4.43;;;;;;;;;;5088362;28;20048;-65
2021/06/22 13:31:25;;;;;;;9.55;4.63;;;;;;;;;;5095518;28;20401;-66
2021/06/22 13:33:58;;;;;;;13.52;4.95;;;;;;;;;;5089125;28;20035;-65
2021/06/22 13:36:25;;;;;;;10.23;4.78;;;;;;;;;;5094390;28;20068;-65
2021/06/22 13:39:08;;;;;;;8.10;4.03;;;;;;;;;;5087527;28;20056;-67
2021/06/22 13:41:55;;;;;;;11.20;4.55;;;;;;;;;;5095988;28;20052;-65
2021/06/22 13:44:43;;;;;;;8.50;4.88;;;;;;;;;;5096764;28;20428;-64
2021/06/22 13:47:28;;;;;;;9.30;4.80;;;;;;;;;;5102319;28;20486;-64
2021/06/22 13:49:54;;;;;;;8.35;4.50;;;;;;;;;;5093979;28;20073;-66
2021/06/22 13:52:21;;;;;;;11.00;5.28;;;;;;;;;;5094256;28;20066;-68
2021/06/22 13:54:53;;;;;;;10.20;4.53;;;;;;;;;;5089516;28;20248;-69
2021/06/22 13:57:20;;;;;;;8.13;4.45;;;;;;;;;;5095649;28;20042;-69
2021/06/22 13:59:46;;;;;;;6.60;4.45;;;;;;;;;;5087537;28;20325;-69
2021/06/22 14:02:12;;;;;;;9.15;4.38;;;;;;;;;;5093458;28;20101;-69
2021/06/22 14:04:38;;;;;;;7.80;4.47;;;;;;;;;;5088687;28;20044;-68
2021/06/22 14:07:07;;;;;;;7.88;4.30;;;;;;;;;;5105670;28;20047;-69
2021/06/22 14:09:33;;;;;;;9.65;4.65;;;;;;;;;;5090447;28;20059;-67
2021/06/22 14:12:00;;;;;;;11.35;4.90;;;;;;;;;;5094969;28;20047;-67
2021/06/22 14:14:26;;;;;;;9.93;5.03;;;;;;;;;;5093909;28;20119;-67
2021/06/22 14:16:52;;;;;;;8.23;4.07;;;;;;;;;;5094108;28;20238;-68
2021/06/22 14:19:19;;;;;;;7.05;4.43;;;;;;;;;;5091665;28;20043;-69
2021/06/22 14:21:46;;;;;;;9.18;4.18;;;;;;;;;;5095214;28;20055;-67
2021/06/22 14:24:12;;;;;;;10.68;4.85;;;;;;;;;;5097021;28;20031;-67
2021/06/22 14:26:42;;;;;;;8.20;4.25;;;;;;;;;;5095567;28;20052;-68
2021/06/22 14:29:08;;;;;;;8.18;5.18;;;;;;;;;;5102133;27;20036;-66
2021/06/22 14:31:35;;;;;;;8.35;5.00;;;;;;;;;;5094854;28;20088;-66
2021/06/22 14:34:02;;;;;;;7.88;4.60;;;;;;;;;;5103901;28;20051;-66